Time;durP1;ratioP1;P1;durP2;ratioP2;P2;SDS_P1;SDS_P2;PMS_P1;PMS_P2;Temp;Humidity;BMP_temperature;BMP_pressure;BME280_temperature;BME280_humidity;BME280_pressure;Samples;Min_cycle;Max_cycle;Signal;HPM_P1;HPM_P2
2022/07/10 04:32:03;;;;;;;;;3.25;3.25;;;;;19.56;50.87;102264.50;5065453;27;45878;-69
2022/07/10 04:34:28;;;;;;;;;2.00;2.00;;;;;19.51;50.73;102258.47;5037522;28;45329;-71
2022/07/10 04:36:54;;;;;;;;;3.50;3.50;;;;;19.36;50.93;102229.41;5037470;28;45418;-72
2022/07/10 04:39:19;;;;;;;;;3.00;3.00;;;;;19.44;51.00;102245.28;5037215;28;45474;-70
2022/07/10 04:41:45;;;;;;;;;3.50;2.00;;;;;19.48;50.95;102252.34;5037608;28;46427;-70
2022/07/10 04:44:10;;;;;;;;;4.00;4.00;;;;;19.51;51.26;102266.63;5037264;28;45896;-71
2022/07/10 04:46:35;;;;;;;;;3.00;3.00;;;;;19.52;50.84;102260.22;5037595;28;45341;-70
2022/07/10 04:49:01;;;;;;;;;3.50;3.00;;;;;19.54;50.97;102258.28;5037442;28;45348;-71
2022/07/10 04:51:26;;;;;;;;;2.75;2.75;;;;;19.50;50.66;102242.22;5032724;28;45474;-71
2022/07/10 04:53:52;;;;;;;;;3.00;3.00;;;;;19.59;50.81;102256.16;5017138;28;45334;-71
2022/07/10 04:56:17;;;;;;;;;2.50;2.50;;;;;19.55;50.93;102254.59;5017291;28;45318;-71
2022/07/10 04:58:43;;;;;;;;;4.00;4.00;;;;;19.59;50.93;102258.00;5017340;28;45249;-71
2022/07/10 05:01:08;;;;;;;;;5.50;4.00;;;;;19.57;50.95;102254.47;5017961;28;45876;-70
2022/07/10 05:03:33;;;;;;;;;4.00;4.00;;;;;19.56;50.67;102259.03;5016982;28;45323;-71
2022/07/10 05:05:59;;;;;;;;;4.00;4.00;;;;;19.53;51.11;102248.38;5017062;28;45355;-71
2022/07/10 05:08:24;;;;;;;;;5.00;3.00;;;;;19.53;51.03;102250.22;5016937;28;50367;-70
2022/07/10 05:10:49;;;;;;;;;5.00;3.25;;;;;19.58;51.06;102257.13;5016848;28;45294;-71
2022/07/10 05:13:15;;;;;;;;;3.75;3.00;;;;;19.65;51.30;102257.63;5017114;28;45457;-70
2022/07/10 05:15:40;;;;;;;;;2.50;2.50;;;;;19.69;51.17;102266.50;5016944;28;45384;-70
2022/07/10 05:18:05;;;;;;;;;4.25;3.00;;;;;19.73;50.65;102262.63;5017199;28;45615;-71
2022/07/10 05:20:31;;;;;;;;;4.00;4.00;;;;;19.71;50.91;102257.28;5016974;28;46029;-70
2022/07/10 05:22:56;;;;;;;;;3.00;3.00;;;;;19.62;50.55;102247.81;5016083;28;45293;-72
2022/07/10 05:25:22;;;;;;;;;2.75;2.75;;;;;19.75;50.49;102266.13;5037062;28;45279;-70
2022/07/10 05:27:48;;;;;;;;;3.00;3.00;;;;;19.69;50.49;102253.75;5036824;28;45493;-70
2022/07/10 05:30:13;;;;;;;;;4.00;2.50;;;;;19.75;50.56;102263.41;5036513;28;45328;-70
2022/07/10 05:32:45;;;;;;;;;3.25;3.25;;;;;19.75;50.38;102256.09;5036418;28;45307;-70
2022/07/10 05:35:12;;;;;;;;;3.00;3.00;;;;;19.79;50.36;102259.53;5036703;28;45360;-70
2022/07/10 05:37:37;;;;;;;;;5.75;4.00;;;;;19.77;50.46;102262.34;5035272;28;45412;-70
2022/07/10 05:40:03;;;;;;;;;2.75;2.75;;;;;19.75;50.44;102269.72;5036248;28;45877;-71
2022/07/10 05:42:29;;;;;;;;;4.00;3.75;;;;;19.77;50.20;102273.22;5036811;28;45309;-71
2022/07/10 05:44:54;;;;;;;;;3.25;3.25;;;;;19.81;50.29;102273.94;5036598;28;45474;-70
2022/07/10 05:47:19;;;;;;;;;3.00;3.00;;;;;19.91;50.10;102286.00;5018511;28;46031;-70
2022/07/10 05:49:45;;;;;;;;;4.00;4.00;;;;;19.93;49.72;102275.91;5036156;28;45449;-71
2022/07/10 05:52:10;;;;;;;;;4.00;4.00;;;;;19.91;49.59;102273.25;5036164;28;45388;-71
2022/07/10 05:54:35;;;;;;;;;0.50;0.50;;;;;19.95;49.62;102285.72;5036224;28;45403;-70
2022/07/10 05:57:01;;;;;;;;;5.25;4.25;;;;;19.96;49.48;102276.59;5036077;28;45407;-71
2022/07/10 05:59:26;;;;;;;;;4.00;2.75;;;;;19.98;49.66;102274.66;5036015;28;45913;-70
2022/07/10 06:01:51;;;;;;;;;3.50;2.00;;;;;19.97;49.85;102261.16;5029988;28;45398;-71
2022/07/10 06:04:17;;;;;;;;;3.25;2.25;;;;;20.13;49.47;102280.13;5016193;28;45502;-71
2022/07/10 06:06:43;;;;;;;;;3.00;3.00;;;;;20.19;49.35;102275.19;5016052;28;45333;-72
2022/07/10 06:09:08;;;;;;;;;2.00;2.00;;;;;20.22;49.33;102272.28;5017836;28;47845;-71
2022/07/10 06:11:34;;;;;;;;;4.50;3.00;;;;;20.24;48.79;102264.00;5018090;28;45445;-73
2022/07/10 06:13:59;;;;;;;;;2.75;2.75;;;;;20.37;48.26;102289.53;5036114;28;45413;-70
2022/07/10 06:16:25;;;;;;;;;4.00;2.75;;;;;20.38;48.71;102278.53;5036107;28;45328;-72
2022/07/10 06:18:50;;;;;;;;;2.25;2.25;;;;;20.47;48.29;102277.09;5017805;28;46514;-73
2022/07/10 06:21:21;;;;;;;;;3.75;3.75;;;;;20.48;48.20;102277.97;5035628;28;45253;-74
2022/07/10 06:23:46;;;;;;;;;4.25;3.00;;;;;20.49;47.93;102277.00;5032765;28;45380;-73
2022/07/10 06:26:12;;;;;;;;;3.00;3.00;;;;;20.52;48.11;102274.06;5015807;28;45672;-75
2022/07/10 06:28:39;;;;;;;;;2.00;2.00;;;;;20.54;47.90;102269.41;5015730;28;45344;-72
2022/07/10 06:31:04;;;;;;;;;2.75;2.75;;;;;20.60;47.23;102279.91;5015757;28;45314;-70
2022/07/10 06:33:30;;;;;;;;;2.50;2.50;;;;;20.67;47.64;102276.69;5015680;28;45345;-69
2022/07/10 06:35:55;;;;;;;;;3.00;3.00;;;;;20.73;47.11;102273.59;5015404;28;45577;-74
2022/07/10 06:38:20;;;;;;;;;2.50;2.50;;;;;20.75;47.12;102271.66;5015845;28;45218;-70
2022/07/10 06:40:47;;;;;;;;;3.00;3.00;;;;;20.79;46.88;102266.84;5014675;28;45303;-71
2022/07/10 06:43:12;;;;;;;;;3.50;3.50;;;;;20.92;46.93;102270.56;5015911;28;45369;-71
2022/07/10 06:45:39;;;;;;;;;3.25;3.25;;;;;21.04;46.50;102257.94;5015471;28;45340;-71
2022/07/10 06:48:05;;;;;;;;;3.25;2.25;;;;;21.18;45.76;102260.66;5015033;28;45531;-71
2022/07/10 06:50:31;;;;;;;;;3.50;3.00;;;;;21.17;45.62;102258.94;5015521;28;45351;-71
2022/07/10 06:52:58;;;;;;;;;2.50;2.50;;;;;21.19;45.57;102269.72;5015300;28;45376;-71
2022/07/10 06:55:23;;;;;;;;;3.25;3.25;;;;;21.09;45.27;102253.09;5015285;28;45393;-70
2022/07/10 06:57:48;;;;;;;;;2.00;2.00;;;;;21.21;45.72;102273.22;5015160;28;45964;-71
2022/07/10 07:00:15;;;;;;;;;5.50;3.00;;;;;21.20;45.73;102266.91;5015287;28;45475;-71
2022/07/10 07:02:41;;;;;;;;;2.50;1.50;;;;;21.14;45.87;102265.44;5015965;28;45211;-71
2022/07/10 07:05:07;;;;;;;;;1.50;1.50;;;;;21.20;45.46;102261.44;5003007;28;45315;-71
2022/07/10 07:07:33;;;;;;;;;3.50;3.50;;;;;21.31;44.86;102269.81;5014621;28;46844;-71
2022/07/10 07:09:59;;;;;;;;;4.00;3.00;;;;;21.33;44.94;102273.31;5014918;28;45491;-71
2022/07/10 07:12:24;;;;;;;;;5.50;2.50;;;;;21.36;44.65;102274.94;5015236;28;45817;-70
2022/07/10 07:14:49;;;;;;;;;1.50;1.25;;;;;21.37;44.06;102277.56;5015010;28;45309;-70
2022/07/10 07:17:21;;;;;;;;;2.00;2.00;;;;;21.37;44.45;102265.78;5014728;28;45522;-71
2022/07/10 07:25:14;;;;;;;;;2.00;2.00;;;;;21.42;43.91;102258.19;5014542;28;45337;-70
2022/07/10 07:27:40;;;;;;;;;2.00;2.00;;;;;21.44;43.27;102261.66;5014581;28;45389;-71
2022/07/10 07:30:08;;;;;;;;;4.00;2.00;;;;;21.45;42.99;102261.56;5014767;28;45214;-71
2022/07/10 07:32:34;;;;;;;;;3.00;3.00;;;;;21.50;43.01;102264.88;5014434;28;45520;-70
2022/07/10 07:35:00;;;;;;;;;3.00;3.00;;;;;21.52;43.01;102262.03;5014642;28;45665;-70
2022/07/10 07:37:43;;;;;;;;;2.00;2.00;;;;;21.52;42.61;102254.69;5014506;28;46498;-71
2022/07/10 07:40:13;;;;;;;;;2.00;2.00;;;;;21.53;42.94;102252.84;5014407;28;45439;-70
2022/07/10 07:42:40;;;;;;;;;1.75;1.75;;;;;21.57;42.55;102253.53;5029779;28;45450;-70
2022/07/10 07:45:06;;;;;;;;;1.50;1.50;;;;;21.53;42.49;102242.81;5014192;28;45595;-71
2022/07/10 07:47:43;;;;;;;;;2.00;2.00;;;;;21.39;41.96;102209.25;5014474;28;46208;-71
2022/07/10 07:50:09;;;;;;;;;1.25;1.25;;;;;21.55;42.17;102239.97;5014195;28;45351;-70
2022/07/10 07:52:35;;;;;;;;;2.00;2.00;;;;;21.53;42.42;102234.63;5012841;28;45361;-70
2022/07/10 07:55:01;;;;;;;;;0.50;0.50;;;;;21.58;42.76;102237.03;5013692;28;45406;-69
2022/07/10 07:57:26;;;;;;;;;1.50;1.50;;;;;21.62;42.52;102233.13;5013690;28;45488;-69
2022/07/10 07:59:51;;;;;;;;;2.00;2.00;;;;;21.63;42.26;102232.13;5013200;28;45441;-71
2022/07/10 08:02:17;;;;;;;;;2.25;2.25;;;;;21.69;41.80;102244.50;5014262;28;45495;-70
2022/07/10 08:04:42;;;;;;;;;1.50;1.50;;;;;21.73;42.27;102240.56;5014201;28;45530;-70
2022/07/10 08:07:07;;;;;;;;;1.00;1.00;;;;;21.77;41.63;102239.41;5013861;28;45348;-70
2022/07/10 08:09:33;;;;;;;;;2.00;2.00;;;;;21.72;41.98;102244.28;5014033;28;45344;-70
2022/07/10 08:11:58;;;;;;;;;3.00;2.00;;;;;21.75;41.51;102247.69;5014467;28;45302;-70
2022/07/10 08:14:23;;;;;;;;;3.00;2.00;;;;;21.76;41.79;102224.88;5014187;28;45523;-72
2022/07/10 08:16:50;;;;;;;;;2.00;2.00;;;;;21.80;41.32;102230.97;5014427;28;46035;-70
2022/07/10 08:19:16;;;;;;;;;2.00;2.00;;;;;21.85;41.73;102232.41;5014160;28;45415;-71
2022/07/10 08:21:41;;;;;;;;;1.25;1.25;;;;;21.90;41.19;102232.97;5013996;28;45351;-69
2022/07/10 08:24:06;;;;;;;;;2.00;2.00;;;;;21.86;40.85;102222.38;5014026;28;45514;-70
2022/07/10 08:26:32;;;;;;;;;2.25;2.25;;;;;21.96;41.01;102233.50;5014069;28;46118;-70
2022/07/10 08:28:57;;;;;;;;;2.00;2.00;;;;;21.95;41.11;102218.13;5013989;28;45363;-71
2022/07/10 08:31:23;;;;;;;;;2.00;2.00;;;;;22.03;40.80;102221.22;5014139;28;45512;-70
2022/07/10 08:33:48;;;;;;;;;1.75;1.75;;;;;22.11;40.54;102233.34;5014175;28;45155;-71
2022/07/10 08:36:14;;;;;;;;;1.75;1.75;;;;;22.06;40.20;102218.25;5013709;28;46402;-70
2022/07/10 08:38:39;;;;;;;;;1.50;1.50;;;;;22.15;40.01;102228.53;5013926;28;45225;-70
2022/07/10 08:41:05;;;;;;;;;3.00;3.00;;;;;22.17;40.02;102238.38;5013946;28;45320;-70
2022/07/10 08:43:31;;;;;;;;;3.00;2.75;;;;;22.15;40.01;102221.22;5013591;28;45615;-70
2022/07/10 08:45:58;;;;;;;;;2.00;2.00;;;;;22.21;39.94;102231.69;5010062;28;48341;-70
2022/07/10 08:48:24;;;;;;;;;1.00;1.00;;;;;22.23;39.92;102220.66;5013460;28;45369;-70
2022/07/10 08:50:54;;;;;;;;;2.25;2.25;;;;;22.24;39.89;102219.69;5013443;28;45310;-70
2022/07/10 08:53:32;;;;;;;;;1.50;1.50;;;;;22.30;39.61;102221.09;5031340;28;45688;-70
2022/07/10 08:56:00;;;;;;;;;1.00;1.00;;;;;22.33;39.41;102220.88;5033597;28;46122;-71
2022/07/10 08:58:27;;;;;;;;;2.25;2.25;;;;;22.34;39.37;102223.50;5033711;28;45267;-70
2022/07/10 09:00:53;;;;;;;;;5.75;3.00;;;;;22.38;39.35;102221.41;5033823;28;45623;-71
2022/07/10 09:03:19;;;;;;;;;1.25;1.00;;;;;22.38;39.42;102210.47;5014609;28;45668;-70
2022/07/10 09:05:44;;;;;;;;;1.25;1.25;;;;;22.40;39.22;102203.94;4995316;28;47388;-70
2022/07/10 09:08:28;;;;;;;;;2.50;2.50;;;;;22.45;39.54;102196.28;5013371;28;45379;-70
2022/07/10 09:11:13;;;;;;;;;2.00;2.00;;;;;22.46;39.36;102186.19;5013821;28;45327;-71
2022/07/10 09:13:59;;;;;;;;;2.75;2.75;;;;;22.50;39.30;102190.47;5016865;28;45329;-70
2022/07/10 09:16:27;;;;;;;;;1.50;1.50;;;;;22.50;39.24;102182.28;5017265;28;45497;-70
2022/07/10 09:18:52;;;;;;;;;2.00;2.00;;;;;22.51;39.51;102178.56;5015379;28;45321;-71
2022/07/10 09:21:18;;;;;;;;;3.00;3.00;;;;;22.51;39.53;102173.97;5016879;28;45431;-70
2022/07/10 09:23:43;;;;;;;;;2.00;2.00;;;;;22.58;39.06;102190.78;5015439;28;45367;-70
2022/07/10 09:26:08;;;;;;;;;1.50;1.50;;;;;22.59;38.51;102179.75;5016938;28;45438;-70
2022/07/10 09:28:34;;;;;;;;;2.75;2.75;;;;;22.61;39.10;102191.44;5016786;28;45281;-69
2022/07/10 09:30:59;;;;;;;;;4.75;2.00;;;;;22.63;38.78;102192.19;5016841;28;45181;-71
2022/07/10 09:33:34;;;;;;;;;4.75;2.25;;;;;22.65;38.25;102179.28;5014991;28;45182;-70
2022/07/10 09:36:13;;;;;;;;;3.50;3.00;;;;;22.67;38.48;102173.69;5016338;28;46210;-70
2022/07/10 09:38:45;;;;;;;;;2.50;2.50;;;;;22.68;38.55;102189.13;5016311;28;45467;-71
2022/07/10 09:41:30;;;;;;;;;3.00;3.00;;;;;22.69;38.76;102174.47;5016641;28;45344;-70
2022/07/10 09:44:01;;;;;;;;;2.50;2.50;;;;;22.73;38.72;102183.31;5016410;28;45824;-70
2022/07/10 09:46:41;;;;;;;;;2.25;2.25;;;;;22.75;38.87;102178.63;5016255;28;45395;-70
2022/07/10 09:49:14;;;;;;;;;3.00;3.00;;;;;22.69;38.44;102173.59;5016495;28;45293;-69
2022/07/10 09:51:45;;;;;;;;;2.00;2.00;;;;;22.77;38.62;102180.28;5016281;28;45307;-70
2022/07/10 09:54:11;;;;;;;;;2.00;2.00;;;;;22.81;38.85;102187.25;5016041;28;45353;-70
2022/07/10 09:56:47;;;;;;;;;0.00;0.00;;;;;22.82;38.66;102166.25;5015894;28;45415;-71
2022/07/10 09:59:14;;;;;;;;;2.75;2.00;;;;;22.83;38.72;102179.81;5016375;28;45343;-70
2022/07/10 10:01:50;;;;;;;;;2.25;2.25;;;;;22.83;38.34;102168.88;5017365;28;45447;-70
2022/07/10 10:04:21;;;;;;;;;2.75;2.75;;;;;22.85;38.42;102183.31;5015936;28;45444;-71
2022/07/10 10:06:53;;;;;;;;;2.00;2.00;;;;;22.90;38.57;102175.63;5015942;28;46422;-71
2022/07/10 10:09:23;;;;;;;;;1.50;1.50;;;;;22.92;38.39;102172.78;5015870;28;45226;-70
2022/07/10 10:11:51;;;;;;;;;2.25;1.75;;;;;22.92;38.45;102168.19;5016314;28;45352;-70
2022/07/10 10:14:19;;;;;;;;;3.00;3.00;;;;;22.86;38.62;102152.25;5015918;28;45583;-71
2022/07/10 10:16:47;;;;;;;;;3.25;3.25;;;;;22.95;38.50;102170.69;5015802;28;45981;-70
2022/07/10 10:21:59;;;;;;;;;2.50;0.75;;;;;23.01;38.68;102152.94;5015218;28;45476;-69
2022/07/10 10:24:26;;;;;;;;;2.00;2.00;;;;;23.04;38.50;102147.25;5015130;28;45571;-70
2022/07/10 10:26:53;;;;;;;;;1.00;1.00;;;;;23.06;38.66;102152.56;5015808;28;46244;-72
2022/07/10 10:29:18;;;;;;;;;2.25;1.25;;;;;23.20;38.10;102155.16;5008906;28;45536;-70
2022/07/10 10:31:44;;;;;;;;;1.50;1.50;;;;;23.22;38.41;102161.38;5015526;28;45318;-70
2022/07/10 10:34:09;;;;;;;;;0.00;0.00;;;;;23.21;38.56;102154.16;5014585;28;45357;-70
2022/07/10 10:36:41;;;;;;;;;3.25;2.25;;;;;23.28;38.66;102164.53;5014269;28;45301;-71
2022/07/10 10:39:16;;;;;;;;;3.00;3.00;;;;;23.34;38.98;102149.47;5012901;28;45282;-71
2022/07/10 10:41:47;;;;;;;;;2.75;2.00;;;;;23.36;38.59;102145.63;5014515;28;45417;-74
2022/07/10 10:44:23;;;;;;;;;1.50;1.50;;;;;23.36;38.87;102131.09;5014425;28;45553;-74
2022/07/10 10:46:56;;;;;;;;;1.00;1.00;;;;;23.43;38.92;102143.28;5014080;28;47475;-73
2022/07/10 10:49:23;;;;;;;;;1.75;1.75;;;;;23.46;38.21;102136.72;5014283;28;45495;-73
2022/07/10 10:52:01;;;;;;;;;3.75;3.75;;;;;23.48;38.34;102143.78;5011170;28;45409;-75
2022/07/10 10:54:28;;;;;;;;;4.00;3.00;;;;;23.51;38.12;102140.84;5011129;28;45293;-75
2022/07/10 10:57:13;;;;;;;;;3.25;3.25;;;;;23.52;38.08;102128.03;5015294;28;46124;-76
2022/07/10 10:59:49;;;;;;;;;4.50;4.50;;;;;23.55;38.59;102123.22;5011604;28;46425;-75
2022/07/10 11:02:29;;;;;;;;;4.25;4.25;;;;;23.49;38.61;102100.91;4992268;28;45692;-75
2022/07/10 11:05:18;;;;;;;;;4.75;4.00;;;;;23.68;38.16;102121.25;5002575;28;45214;-78
2022/07/10 11:07:59;;;;;;;;;2.25;2.25;;;;;23.71;38.32;102114.66;5014992;28;45233;-79
2022/07/10 11:10:33;;;;;;;;;4.50;3.00;;;;;23.74;37.95;102104.31;5013989;28;45317;-75
2022/07/10 11:13:02;;;;;;;;;2.50;2.50;;;;;23.83;38.12;102110.03;5014973;28;45332;-79
2022/07/10 11:15:35;;;;;;;;;2.75;2.75;;;;;23.84;37.92;102101.72;5015753;28;47388;-79
2022/07/10 11:18:07;;;;;;;;;5.50;5.50;;;;;23.83;38.03;102089.00;5014632;28;46026;-80
2022/07/10 11:20:35;;;;;;;;;5.75;5.00;;;;;23.90;37.68;102089.41;4999697;28;45352;-80
2022/07/10 11:23:17;;;;;;;;;3.00;3.00;;;;;23.98;37.75;102098.75;5014607;28;45345;-75
2022/07/10 11:26:16;;;;;;;;;3.00;3.00;;;;;24.02;38.13;102083.78;5013369;28;45298;-75
2022/07/10 11:28:51;;;;;;;;;3.75;3.75;;;;;24.08;38.30;102082.41;5013040;28;45448;-74
2022/07/10 11:31:17;;;;;;;;;4.75;3.75;;;;;24.12;38.35;102075.69;4973801;28;1125269;-74
2022/07/10 11:33:46;;;;;;;;;3.00;3.00;;;;;24.10;38.69;102072.19;5014746;28;45313;-81
2022/07/10 11:36:14;;;;;;;;;1.75;1.75;;;;;24.19;38.00;102079.69;4995443;28;45675;-75
2022/07/10 11:38:41;;;;;;;;;1.50;1.50;;;;;24.25;38.45;102078.31;5014587;28;45337;-73
2022/07/10 11:41:21;;;;;;;;;3.25;2.00;;;;;24.27;37.79;102079.06;5014485;28;45223;-73
2022/07/10 11:43:55;;;;;;;;;0.75;0.75;;;;;24.26;37.89;102047.19;5014852;28;45534;-73
2022/07/10 11:46:25;;;;;;;;;0.75;0.75;;;;;24.39;38.22;102064.38;5014414;28;45353;-74
2022/07/10 11:48:53;;;;;;;;;1.50;1.50;;;;;24.30;37.84;102043.19;5014639;28;45940;-73
2022/07/10 11:51:26;;;;;;;;;2.00;2.00;;;;;24.49;38.00;102068.09;5014180;28;45404;-72
2022/07/10 11:53:56;;;;;;;;;2.50;1.00;;;;;24.55;37.99;102069.44;5014772;28;45375;-75
2022/07/10 11:56:23;;;;;;;;;3.00;1.00;;;;;24.60;37.95;102061.69;5014316;28;45546;-76
2022/07/10 11:59:15;;;;;;;;;1.00;1.00;;;;;24.67;37.65;102061.03;5011034;28;45660;-73
2022/07/10 12:01:45;;;;;;;;;1.75;1.00;;;;;24.73;37.73;102071.50;5005919;28;45668;-75
2022/07/10 12:04:12;;;;;;;;;0.50;0.50;;;;;24.70;37.56;102055.28;4986589;28;45365;-78
2022/07/10 12:06:40;;;;;;;;;3.00;1.00;;;;;24.84;37.43;102078.81;5014189;28;45485;-72
2022/07/10 12:09:15;;;;;;;;;1.00;1.00;;;;;24.89;37.45;102077.44;5014255;28;46394;-73
2022/07/10 12:11:42;;;;;;;;;1.50;1.50;;;;;24.95;37.66;102066.94;5014312;28;45346;-74
2022/07/10 12:14:16;;;;;;;;;0.75;0.75;;;;;25.03;38.24;102064.41;5014389;28;45368;-72
2022/07/10 12:16:43;;;;;;;;;2.00;2.00;;;;;25.09;37.57;102061.19;5014440;28;45355;-72
2022/07/10 12:19:10;;;;;;;;;1.00;1.00;;;;;25.10;37.04;102069.25;5014292;28;45332;-71
2022/07/10 12:21:36;;;;;;;;;3.50;0.75;;;;;25.14;37.57;102067.13;4996116;28;45254;-71
2022/07/10 12:24:02;;;;;;;;;2.00;2.00;;;;;25.10;36.87;102049.16;5014382;28;45355;-70
2022/07/10 12:26:35;;;;;;;;;1.75;0.75;;;;;25.14;37.27;102046.03;5014207;28;45369;-70
2022/07/10 12:29:02;;;;;;;;;2.00;1.25;;;;;25.22;37.54;102027.03;5013920;28;46381;-71
2022/07/10 12:31:31;;;;;;;;;1.25;0.50;;;;;25.34;37.15;102065.41;5013853;28;45473;-70
2022/07/10 12:34:07;;;;;;;;;2.00;1.00;;;;;25.33;36.92;102052.69;5013993;28;45630;-78
2022/07/10 12:36:42;;;;;;;;;1.75;1.75;;;;;25.48;36.54;102067.78;5013694;28;45369;-73
2022/07/10 12:39:07;;;;;;;;;2.00;2.00;;;;;25.55;36.71;102079.97;5013631;28;46097;-74
2022/07/10 12:41:33;;;;;;;;;2.00;2.00;;;;;25.57;37.15;102056.88;5010262;28;45309;-74
2022/07/10 12:43:58;;;;;;;;;1.25;1.25;;;;;25.61;36.54;102039.13;5014262;28;45407;-75
2022/07/10 12:46:24;;;;;;;;;0.50;0.50;;;;;25.77;36.06;102059.78;5014788;28;45269;-76
2022/07/10 12:49:08;;;;;;;;;1.50;0.50;;;;;25.85;36.22;102051.72;5016498;28;45933;-75
2022/07/10 12:51:54;;;;;;;;;1.50;1.00;;;;;25.91;35.78;102049.28;5016210;28;45388;-75
2022/07/10 12:54:37;;;;;;;;;1.00;1.00;;;;;25.97;36.54;102059.69;5018007;28;45368;-76
2022/07/10 12:57:05;;;;;;;;;1.00;1.00;;;;;26.10;36.15;102050.38;5017516;28;45543;-77
2022/07/10 12:59:36;;;;;;;;;1.00;1.00;;;;;26.20;35.43;102043.03;5016658;28;45443;-77
2022/07/10 13:02:21;;;;;;;;;1.00;1.00;;;;;26.24;35.51;102031.59;5017987;28;45439;-75
2022/07/10 13:04:55;;;;;;;;;1.00;1.00;;;;;26.31;35.33;102013.53;5017375;28;45484;-75
2022/07/10 13:07:28;;;;;;;;;2.00;2.00;;;;;26.45;34.99;102033.41;5016574;28;45528;-74
2022/07/10 13:09:53;;;;;;;;;1.25;1.00;;;;;26.53;35.55;102031.69;5016899;28;45417;-74
2022/07/10 13:12:19;;;;;;;;;0.75;0.75;;;;;26.53;34.91;102028.06;5016827;28;45341;-76
2022/07/10 13:14:44;;;;;;;;;0.50;0.50;;;;;26.60;34.99;102024.59;5017511;28;45379;-71
2022/07/10 13:17:09;;;;;;;;;2.00;2.00;;;;;26.68;34.77;102029.38;5017213;28;45560;-71
2022/07/10 13:19:35;;;;;;;;;0.00;0.00;;;;;26.74;35.03;102018.66;5017744;28;45368;-70
2022/07/10 13:22:00;;;;;;;;;0.50;0.50;;;;;26.84;35.04;102013.16;5015028;28;45428;-71
2022/07/10 13:24:26;;;;;;;;;0.75;0.75;;;;;26.88;34.87;102000.84;5016754;28;45434;-69
2022/07/10 13:26:55;;;;;;;;;2.75;1.75;;;;;27.03;34.21;102015.09;5004254;28;45578;-71
2022/07/10 13:29:21;;;;;;;;;2.50;0.75;;;;;27.04;34.17;102012.19;5012337;28;45600;-70
2022/07/10 13:31:46;;;;;;;;;2.75;0.75;;;;;27.15;34.27;102013.88;5015776;28;45548;-70
2022/07/10 13:34:11;;;;;;;;;0.75;0.75;;;;;27.25;34.03;102008.38;5015818;28;45392;-69
2022/07/10 13:36:36;;;;;;;;;2.75;1.00;;;;;27.22;34.35;101994.91;4997930;28;46505;-70
2022/07/10 13:39:02;;;;;;;;;0.00;0.00;;;;;27.35;33.88;102007.34;5015657;28;46126;-69
2022/07/10 13:41:27;;;;;;;;;3.00;1.50;;;;;27.48;33.76;102004.25;5016052;28;45357;-69
2022/07/10 13:43:53;;;;;;;;;3.00;1.00;;;;;27.52;33.43;102000.19;4999057;28;45532;-70
2022/07/10 13:46:18;;;;;;;;;0.75;0.75;;;;;27.59;33.45;101997.72;5014871;28;45301;-70
2022/07/10 13:48:44;;;;;;;;;1.00;1.00;;;;;27.69;33.36;101993.06;5015742;28;45393;-68
2022/07/10 13:51:09;;;;;;;;;1.50;1.00;;;;;27.77;33.17;101994.03;5015313;28;45392;-71
2022/07/10 13:53:34;;;;;;;;;1.00;1.00;;;;;27.84;32.98;101997.03;5015716;28;45457;-70
2022/07/10 13:56:00;;;;;;;;;0.75;0.75;;;;;27.86;33.06;101965.56;5015252;28;45688;-69
2022/07/10 13:58:26;;;;;;;;;1.00;1.00;;;;;28.05;32.42;101988.53;5013972;28;45403;-71
2022/07/10 14:00:51;;;;;;;;;2.00;0.75;;;;;28.07;32.31;101984.56;5015343;28;45337;-67
2022/07/10 14:03:17;;;;;;;;;1.50;0.25;;;;;28.09;31.62;101982.53;5015998;28;45451;-68
2022/07/10 14:05:42;;;;;;;;;0.75;0.75;;;;;28.21;32.20;101984.09;5015851;28;45356;-70
2022/07/10 14:08:07;;;;;;;;;3.00;1.00;;;;;28.32;31.77;101977.50;5015890;28;46013;-71
2022/07/10 14:10:33;;;;;;;;;0.75;0.75;;;;;28.40;32.04;101974.84;5016102;28;45304;-69
2022/07/10 14:12:58;;;;;;;;;2.00;2.00;;;;;28.50;31.97;101985.78;5016127;28;45315;-69
2022/07/10 14:15:25;;;;;;;;;1.00;1.00;;;;;28.54;32.11;101968.75;5014654;28;46539;-68
2022/07/10 14:17:51;;;;;;;;;3.00;1.00;;;;;28.59;31.81;101958.09;5015938;28;45381;-69
2022/07/10 14:20:17;;;;;;;;;3.00;2.00;;;;;28.70;31.74;101979.09;5015575;28;45424;-72
2022/07/10 14:22:45;;;;;;;;;1.00;1.00;;;;;28.75;31.53;101976.69;5015947;28;45228;-70
2022/07/10 14:25:11;;;;;;;;;0.00;0.00;;;;;28.75;31.37;101962.91;5015341;28;45294;-69
2022/07/10 14:27:36;;;;;;;;;1.00;1.00;;;;;28.80;31.90;101968.00;5023688;28;45428;-70
2022/07/10 14:30:04;;;;;;;;;2.00;1.00;;;;;28.87;31.16;101969.94;5015475;28;45302;-71
2022/07/10 14:32:29;;;;;;;;;2.00;1.00;;;;;28.90;31.71;101963.25;5015963;28;45971;-71
2022/07/10 14:34:55;;;;;;;;;1.00;1.00;;;;;28.96;31.46;101965.38;5009734;28;45548;-71
2022/07/10 14:37:21;;;;;;;;;1.25;0.50;;;;;28.89;31.83;101951.34;5015418;28;46254;-71
2022/07/10 14:39:47;;;;;;;;;0.00;0.00;;;;;28.42;32.32;101955.34;5013236;28;45229;-74
2022/07/10 14:42:12;;;;;;;;;2.00;1.00;;;;;27.86;33.35;101945.41;5015889;28;45642;-72
2022/07/10 14:44:38;;;;;;;;;2.00;0.00;;;;;27.43;33.41;101941.34;5015444;28;45293;-73
2022/07/10 14:47:04;;;;;;;;;3.00;2.00;;;;;27.20;34.56;101948.25;5014050;28;48273;-72
2022/07/10 14:49:29;;;;;;;;;1.75;1.00;;;;;27.02;34.97;101950.03;5015158;28;45424;-73
2022/07/10 14:51:55;;;;;;;;;1.00;0.75;;;;;26.85;35.27;101951.63;5015307;28;45581;-71
2022/07/10 14:54:21;;;;;;;;;1.00;1.00;;;;;26.71;36.09;101957.56;5015156;28;45430;-72
2022/07/10 14:56:46;;;;;;;;;4.25;2.00;;;;;26.54;36.52;101945.38;5015341;28;46150;-73
2022/07/10 14:59:11;;;;;;;;;0.75;0.75;;;;;26.47;35.75;101954.38;5015142;28;45364;-73
2022/07/10 15:01:37;;;;;;;;;1.25;0.25;;;;;26.41;36.49;101947.56;5015057;28;45451;-73
2022/07/10 15:04:02;;;;;;;;;0.75;0.00;;;;;26.27;36.91;101931.50;5015027;28;45402;-71
2022/07/10 15:06:28;;;;;;;;;0.75;0.75;;;;;26.27;37.10;101943.38;5015038;28;45421;-72
2022/07/10 15:08:53;;;;;;;;;0.75;0.75;;;;;26.19;37.83;101926.69;5015076;28;45329;-72
2022/07/10 15:11:22;;;;;;;;;1.25;0.75;;;;;26.14;37.64;101923.47;5015042;28;45534;-72
2022/07/10 15:13:47;;;;;;;;;1.00;1.00;;;;;26.26;37.85;101949.88;5014975;28;45925;-71
2022/07/10 15:16:13;;;;;;;;;1.50;1.25;;;;;26.29;37.62;101929.44;5014725;28;45697;-71
2022/07/10 15:18:38;;;;;;;;;0.50;0.50;;;;;26.41;37.04;101942.06;5015278;28;45171;-72
2022/07/10 15:21:04;;;;;;;;;1.50;0.50;;;;;26.49;37.24;101941.34;5014770;28;45331;-73
2022/07/10 15:23:29;;;;;;;;;0.00;0.00;;;;;26.32;37.34;101915.44;5014880;28;45550;-71
2022/07/10 15:25:54;;;;;;;;;1.00;1.00;;;;;26.43;37.26;101919.94;5014958;28;45556;-73
2022/07/10 15:28:19;;;;;;;;;1.00;1.00;;;;;26.45;37.98;101926.16;5015021;28;45301;-73
2022/07/10 15:30:45;;;;;;;;;1.25;1.25;;;;;26.52;36.80;101930.06;5014914;28;45689;-72
2022/07/10 15:33:12;;;;;;;;;1.50;0.00;;;;;26.58;36.75;101932.22;5014493;28;45517;-73
2022/07/10 15:35:37;;;;;;;;;2.00;0.75;;;;;26.62;37.65;101925.44;5012920;28;46165;-72
2022/07/10 15:38:02;;;;;;;;;1.00;1.00;;;;;26.60;37.68;101920.06;5014432;28;46513;-73
2022/07/10 15:40:31;;;;;;;;;1.75;0.75;;;;;26.63;37.59;101928.00;5014650;28;45357;-75
2022/07/10 15:42:57;;;;;;;;;1.75;0.25;;;;;26.58;37.45;101930.34;5014712;28;45287;-76
2022/07/10 15:45:26;;;;;;;;;1.50;0.75;;;;;26.64;37.96;101929.75;5014406;28;45499;-74
2022/07/10 15:47:52;;;;;;;;;0.00;0.00;;;;;26.56;37.65;101926.00;5014522;28;45492;-73
2022/07/10 15:50:18;;;;;;;;;0.50;0.50;;;;;26.69;37.21;101921.09;5013044;28;45388;-74
2022/07/10 15:52:45;;;;;;;;;0.25;0.25;;;;;26.66;36.63;101911.22;5014763;28;45365;-73
2022/07/10 15:55:11;;;;;;;;;2.00;0.25;;;;;26.79;36.81;101929.31;5003719;28;46414;-75
2022/07/10 15:57:37;;;;;;;;;0.75;0.00;;;;;26.82;36.95;101920.75;5004299;28;45545;-75
2022/07/10 16:00:04;;;;;;;;;0.75;0.75;;;;;26.64;36.89;101913.25;5010120;28;46226;-73
2022/07/10 16:02:30;;;;;;;;;1.00;1.00;;;;;26.61;36.96;101918.19;5011110;28;45444;-72
2022/07/10 16:04:55;;;;;;;;;2.25;0.50;;;;;26.67;36.41;101918.47;5011968;28;49138;-73
2022/07/10 16:07:20;;;;;;;;;6.00;1.50;;;;;26.71;36.58;101911.63;5013969;28;45317;-73